createdAt,value
2023-04-02T00:08:55.070Z,45.88
2023-04-02T00:19:02.668Z,43.83
2023-04-02T00:29:06.388Z,38.88
2023-04-02T00:39:19.969Z,36.08
2023-04-02T00:49:38.853Z,31.38
2023-04-02T01:00:00.624Z,34.05
2023-04-02T01:10:48.930Z,44.67
2023-04-02T01:21:11.388Z,32.42
2023-04-02T01:31:16.471Z,24.95
2023-04-02T01:41:30.953Z,32.92
2023-04-02T01:51:34.787Z,48.28
2023-04-02T02:02:01.508Z,33.47
2023-04-02T02:12:05.007Z,43.80
2023-04-02T02:22:33.708Z,38.28
2023-04-02T02:32:46.760Z,37.10
2023-04-02T02:42:55.935Z,52.05
2023-04-02T02:53:06.070Z,35.30
2023-04-02T03:03:19.257Z,46.28
2023-04-02T03:13:39.730Z,43.47
2023-04-02T03:24:01.158Z,55.17
2023-04-02T03:34:33.526Z,54.67
2023-04-02T03:45:05.052Z,68.30
2023-04-02T03:55:17.264Z,52.40
2023-04-02T04:05:30.609Z,54.70
2023-04-02T04:15:41.082Z,40.88
2023-04-02T04:25:43.930Z,39.20
2023-04-02T04:35:59.744Z,41.30
2023-04-02T04:46:29.331Z,44.25
2023-04-02T04:56:53.740Z,36.13
2023-04-02T05:07:13.874Z,42.75
2023-04-02T05:17:33.704Z,19.38
2023-04-02T05:27:56.848Z,24.92
2023-04-02T05:50:06.903Z,9.68
2023-04-02T06:00:20.520Z,11.27
2023-04-02T06:10:31.364Z,9.35
2023-04-02T06:20:34.961Z,5.28
2023-04-02T06:30:43.661Z,5.93
2023-04-02T06:41:02.130Z,7.27
2023-04-02T06:51:21.824Z,8.80
2023-04-02T07:01:49.076Z,5.13
2023-04-02T07:11:51.261Z,9.52
2023-04-02T07:21:53.953Z,7.93
2023-04-02T07:31:57.841Z,3.65
2023-04-02T07:42:01.632Z,6.38
2023-04-02T07:52:05.115Z,2.53
2023-04-02T08:02:07.602Z,8.48
2023-04-02T08:12:13.624Z,5.35
2023-04-02T08:22:15.569Z,3.67
2023-04-02T08:32:17.758Z,6.75
2023-04-02T08:42:26.987Z,10.23
2023-04-02T08:52:32.371Z,10.77
2023-04-02T09:02:40.283Z,9.18
2023-04-02T09:12:46.146Z,12.18
2023-04-02T09:22:50.197Z,18.40
2023-04-02T09:32:54.409Z,18.23
2023-04-02T09:43:25.636Z,42.05
2023-04-02T09:53:42.529Z,42.15
2023-04-02T10:03:46.606Z,31.52
2023-04-02T10:13:56.897Z,23.05
2023-04-02T10:23:58.889Z,30.50
2023-04-02T10:34:09.920Z,23.85
2023-04-02T10:44:34.093Z,36.13
2023-04-02T10:54:48.103Z,20.00
2023-04-02T11:04:52.065Z,16.67
2023-04-02T11:14:56.333Z,23.33
2023-04-02T11:25:15.961Z,15.05
2023-04-02T11:35:24.164Z,21.20
2023-04-02T11:45:52.770Z,12.77
2023-04-02T11:55:58.205Z,21.90
2023-04-02T12:06:17.314Z,20.70
2023-04-02T12:16:19.727Z,16.70
2023-04-02T12:26:37.342Z,19.90
2023-04-02T12:36:39.317Z,21.20
2023-04-02T12:46:41.650Z,24.17
2023-04-02T12:56:44.311Z,28.08
2023-04-02T13:06:51.700Z,13.68
2023-04-02T13:16:54.440Z,15.68
2023-04-02T13:27:01.402Z,20.00
2023-04-02T13:37:03.330Z,17.08
2023-04-02T13:47:05.236Z,15.10
2023-04-02T13:57:07.229Z,17.98
2023-04-02T14:07:38.209Z,23.00
2023-04-02T14:18:13.400Z,21.45
2023-04-02T14:28:42.089Z,26.08
2023-04-02T14:39:05.838Z,21.55
2023-04-02T14:49:13.607Z,13.07
2023-04-02T14:59:41.569Z,20.92
2023-04-02T15:09:51.096Z,23.05
2023-04-02T15:20:02.224Z,17.35
2023-04-02T15:30:15.583Z,26.75
2023-04-02T15:40:30.047Z,15.90
2023-04-02T15:50:50.015Z,18.88
2023-04-02T16:01:11.455Z,16.27
2023-04-02T16:11:15.560Z,17.98
2023-04-02T16:21:22.329Z,25.58
2023-04-02T16:31:51.837Z,26.70
2023-04-02T16:42:29.081Z,22.00
2023-04-02T16:52:55.161Z,20.55
2023-04-02T17:03:26.285Z,26.50
2023-04-02T17:13:42.088Z,22.70
2023-04-02T17:33:57.146Z,44.03
2023-04-02T17:44:27.245Z,33.90
2023-04-02T17:54:38.852Z,16.80
2023-04-02T18:04:44.427Z,13.18
2023-04-02T18:15:24.175Z,18.42
2023-04-02T18:25:51.296Z,14.10
2023-04-02T18:36:23.237Z,15.15
2023-04-02T18:46:56.462Z,16.77
2023-04-02T18:56:59.376Z,10.20
2023-04-02T19:07:11.939Z,10.93
2023-04-02T19:17:41.922Z,9.20
2023-04-02T19:28:05.369Z,10.97
2023-04-02T19:38:22.088Z,8.15
2023-04-02T19:48:34.984Z,10.90
2023-04-02T19:58:36.900Z,13.27
2023-04-02T20:08:38.874Z,14.50
2023-04-02T20:18:40.677Z,15.10
2023-04-02T20:28:42.509Z,10.25
2023-04-02T20:38:44.538Z,7.65
2023-04-02T20:48:47.225Z,13.45
2023-04-02T20:58:50.131Z,17.85
2023-04-02T21:08:52.635Z,16.20
2023-04-02T21:18:55.733Z,18.92
2023-04-02T21:28:57.501Z,7.68
2023-04-02T21:39:16.100Z,21.10
2023-04-02T21:49:19.865Z,9.85
2023-04-02T21:59:21.921Z,8.05
2023-04-02T22:09:25.236Z,10.23
2023-04-02T22:19:27.681Z,8.90
2023-04-02T22:29:29.657Z,8.48
2023-04-02T22:39:31.883Z,16.58
2023-04-02T22:49:33.790Z,8.30
2023-04-02T22:59:36.277Z,15.40
2023-04-02T23:09:38.062Z,9.52
2023-04-02T23:19:39.893Z,5.40
2023-04-02T23:29:41.779Z,8.85
2023-04-02T23:39:43.954Z,8.57
2023-04-02T23:49:45.766Z,8.00
2023-04-02T23:59:47.756Z,12.18
